Terminal Aerodrome Forecast
Issued by NWS

Home | Current Version | Previous Version | Text Only | Print | Product List | Glossary On
Versions: 1 2 3 4 5 6 7 8 9 10 11 12 13 14 15 16 17 18 19 20 21 22 23 24 25
000
FTUS43 KGRB 222100 AAB
TAFCWA
TAF AMD
KCWA 222125Z 2221/2318 11004KT 6SM HZ SCT020 BKN030
     FM230200 VRB03KT 4SM BR BKN015
     FM230400 VRB03KT 1SM BR OVC005
      TEMPO 2309/2313 1/2SM FG OVC002
     FM231500 10006KT 4SM BR OVC004
     FM231700 10008KT 6SM BR OVC008=

USA.gov is the U.S. government's official web portal to all federal, state and local government web resources and services.